createdAt,value
2019-05-25T00:02:18.863Z,76.03
2019-05-25T00:04:47.586Z,76.27
2019-05-25T00:07:16.384Z,76.77
2019-05-25T00:09:48.190Z,76.88
2019-05-25T00:12:15.061Z,76.94
2019-05-25T00:14:43.668Z,77.38
2019-05-25T00:17:12.252Z,77.50
2019-05-25T00:19:40.820Z,77.85
2019-05-25T00:22:09.268Z,78.05
2019-05-25T00:24:37.774Z,78.43
2019-05-25T00:27:06.287Z,78.63
2019-05-25T00:29:34.837Z,79.07
2019-05-25T00:32:03.362Z,79.37
2019-05-25T00:34:31.898Z,79.45
2019-05-25T00:37:00.513Z,80.08
2019-05-25T00:39:29.038Z,80.31
2019-05-25T00:41:57.651Z,80.40
2019-05-25T00:44:26.092Z,80.70
2019-05-25T00:46:54.773Z,81.02
2019-05-25T00:49:23.300Z,81.23
2019-05-25T00:51:51.949Z,81.34
2019-05-25T00:54:27.963Z,81.75
2019-05-25T00:56:50.688Z,82.17
2019-05-25T00:59:19.266Z,82.63
2019-05-25T01:01:47.812Z,82.86
2019-05-25T01:04:16.434Z,82.97
2019-05-25T01:06:45.045Z,83.21
2019-05-25T01:09:13.576Z,83.59
2019-05-25T01:11:42.019Z,83.59
2019-05-25T01:14:10.624Z,83.77
2019-05-25T01:16:39.217Z,83.99
2019-05-25T01:19:07.722Z,84.24
2019-05-25T01:21:36.337Z,84.85
2019-05-25T01:24:05.122Z,85.23
2019-05-25T01:26:33.703Z,85.35
2019-05-25T01:29:02.390Z,85.33
2019-05-25T01:31:33.600Z,85.40
2019-05-25T01:34:02.193Z,85.48
2019-05-25T01:36:30.737Z,85.65
2019-05-25T01:38:59.282Z,85.77
2019-05-25T01:41:27.755Z,86.52
2019-05-25T01:43:56.274Z,87.03
2019-05-25T01:46:24.854Z,87.57
2019-05-25T01:48:53.449Z,87.75
2019-05-25T01:51:21.965Z,87.94
2019-05-25T01:53:50.555Z,88.27
2019-05-25T01:56:19.246Z,88.70
2019-05-25T01:58:47.821Z,88.48
2019-05-25T02:01:16.401Z,88.70
2019-05-25T02:03:45.111Z,88.83
2019-05-25T02:06:13.562Z,88.89
2019-05-25T02:08:42.020Z,88.75
2019-05-25T02:11:10.557Z,88.89
2019-05-25T02:13:39.170Z,88.50
2019-05-25T02:16:07.756Z,88.62
2019-05-25T02:18:36.244Z,88.61
2019-05-25T02:21:04.870Z,88.98
2019-05-25T02:23:33.381Z,88.99
2019-05-25T02:26:01.942Z,89.10
2019-05-25T02:28:30.540Z,89.40
2019-05-25T02:30:58.977Z,89.44
2019-05-25T02:33:27.567Z,89.36
2019-05-25T02:35:56.088Z,89.51
2019-05-25T02:38:24.682Z,89.39
2019-05-25T02:40:53.203Z,89.46
2019-05-25T02:43:21.803Z,89.56
2019-05-25T02:45:50.320Z,89.23
2019-05-25T02:48:18.840Z,89.01
2019-05-25T02:50:47.622Z,89.15
2019-05-25T02:53:16.165Z,89.19
2019-05-25T02:55:44.750Z,89.06
2019-05-25T02:58:13.297Z,89.43
2019-05-25T03:00:41.879Z,89.46
2019-05-25T03:03:10.409Z,89.66
2019-05-25T03:05:39.082Z,89.89
2019-05-25T03:08:07.625Z,90.00
2019-05-25T03:10:37.316Z,89.80
2019-05-25T03:13:05.978Z,89.92
2019-05-25T03:15:34.587Z,89.83
2019-05-25T03:18:03.644Z,89.80
2019-05-25T03:20:32.501Z,90.03
2019-05-25T03:23:01.112Z,90.27
2019-05-25T03:25:29.571Z,91.22
2019-05-25T03:27:58.082Z,91.98
2019-05-25T03:30:32.430Z,93.05
2019-05-25T03:33:01.082Z,94.38
2019-05-25T03:35:29.850Z,94.95
2019-05-25T03:37:58.381Z,95.11
2019-05-25T03:40:27.042Z,95.60
2019-05-25T03:42:55.672Z,95.81
2019-05-25T03:45:24.185Z,95.70
2019-05-25T03:47:52.800Z,94.98
2019-05-25T03:50:21.353Z,94.57
2019-05-25T03:52:50.010Z,94.12
2019-05-25T03:55:18.902Z,93.28
2019-05-25T03:57:47.490Z,92.81
2019-05-25T04:00:16.912Z,92.26
2019-05-25T04:02:45.527Z,92.00
2019-05-25T04:05:14.053Z,91.49
2019-05-25T04:07:42.616Z,91.39
2019-05-25T04:10:11.439Z,91.01
2019-05-25T04:12:39.976Z,90.69
2019-05-25T04:15:08.991Z,90.31
2019-05-25T04:17:37.558Z,89.64
2019-05-25T04:20:07.036Z,89.19
2019-05-25T04:22:35.516Z,88.54
2019-05-25T04:25:05.146Z,88.61
2019-05-25T04:27:33.673Z,89.00
2019-05-25T04:30:02.591Z,89.45
2019-05-25T04:32:31.112Z,89.42
2019-05-25T04:34:59.576Z,89.32
2019-05-25T04:37:28.160Z,89.32
2019-05-25T04:39:56.714Z,89.14
2019-05-25T04:42:25.312Z,89.13
2019-05-25T04:44:53.920Z,89.00
2019-05-25T04:47:26.887Z,89.02
2019-05-25T04:49:52.975Z,88.80
2019-05-25T04:52:21.560Z,88.70
2019-05-25T04:54:50.049Z,88.55
2019-05-25T04:57:18.586Z,88.52
2019-05-25T04:59:47.162Z,88.18
2019-05-25T05:02:15.764Z,88.08
2019-05-25T05:04:44.288Z,88.06
2019-05-25T05:07:12.901Z,87.85
2019-05-25T05:09:41.433Z,87.68
2019-05-25T05:12:10.109Z,87.47
2019-05-25T05:14:38.697Z,87.24
2019-05-25T05:17:07.312Z,87.23
2019-05-25T05:19:35.932Z,87.02
2019-05-25T05:22:05.929Z,86.75
2019-05-25T05:24:34.716Z,86.64
2019-05-25T05:27:03.237Z,86.79
2019-05-25T05:29:31.757Z,86.83
2019-05-25T05:32:00.337Z,86.59
2019-05-25T05:34:28.985Z,86.51
2019-05-25T05:36:58.305Z,86.21
2019-05-25T05:39:28.269Z,86.00
2019-05-25T05:41:58.866Z,85.45
2019-05-25T05:44:28.351Z,85.20
2019-05-25T05:46:59.926Z,85.12
2019-05-25T05:49:30.705Z,85.25
2019-05-25T05:52:02.661Z,85.22
2019-05-25T05:54:32.510Z,85.02
2019-05-25T05:57:11.811Z,84.45
2019-05-25T05:59:31.415Z,84.33
2019-05-25T06:01:59.965Z,84.64
2019-05-25T06:04:28.481Z,84.60
2019-05-25T06:06:57.233Z,84.39
2019-05-25T06:09:25.747Z,82.79
2019-05-25T06:11:54.461Z,83.14
2019-05-25T06:14:22.979Z,81.62
2019-05-25T06:16:51.499Z,81.04
2019-05-25T06:19:20.128Z,80.99
2019-05-25T06:21:48.603Z,80.33
2019-05-25T06:24:17.119Z,80.10
2019-05-25T06:26:45.563Z,79.60
2019-05-25T06:29:14.043Z,78.50
2019-05-25T06:31:42.629Z,78.29
2019-05-25T06:34:11.235Z,77.92
2019-05-25T06:36:39.758Z,77.67
2019-05-25T06:39:08.671Z,77.39
2019-05-25T06:41:37.201Z,76.61
2019-05-25T06:44:06.326Z,76.34
2019-05-25T06:46:34.757Z,75.82
2019-05-25T06:49:03.343Z,75.24
2019-05-25T06:51:31.859Z,75.22
2019-05-25T06:54:00.445Z,74.89
2019-05-25T06:56:28.906Z,74.81
2019-05-25T06:58:57.493Z,74.55
2019-05-25T07:01:26.219Z,74.85
2019-05-25T07:03:55.148Z,73.96
2019-05-25T07:06:23.828Z,73.61
2019-05-25T07:08:52.801Z,73.68
2019-05-25T07:11:21.458Z,73.91
2019-05-25T07:13:50.273Z,74.34
2019-05-25T07:16:19.316Z,73.21
2019-05-25T07:18:47.994Z,71.45
2019-05-25T07:21:16.662Z,70.67
2019-05-25T07:23:45.271Z,70.46
2019-05-25T07:26:13.809Z,68.84
2019-05-25T07:28:42.690Z,66.30
2019-05-25T07:31:11.347Z,66.01
2019-05-25T07:33:39.965Z,63.70
2019-05-25T07:36:08.556Z,64.06
2019-05-25T07:38:37.149Z,63.22
2019-05-25T07:41:05.766Z,62.51
2019-05-25T07:43:34.219Z,62.80
2019-05-25T07:46:02.983Z,62.33
2019-05-25T07:48:31.572Z,62.92
2019-05-25T07:51:00.094Z,62.56
2019-05-25T07:53:28.737Z,62.43
2019-05-25T07:55:57.323Z,61.59
2019-05-25T07:58:25.920Z,61.58
2019-05-25T08:00:54.526Z,61.54
2019-05-25T08:03:23.228Z,60.10
2019-05-25T08:05:51.966Z,60.99
2019-05-25T08:08:20.550Z,59.67
2019-05-25T08:10:49.222Z,59.71
2019-05-25T08:13:17.826Z,60.74
2019-05-25T08:15:46.411Z,60.21
2019-05-25T08:18:14.995Z,60.07
2019-05-25T08:20:46.939Z,57.06
2019-05-25T08:23:13.914Z,55.04
2019-05-25T08:25:42.735Z,52.63
2019-05-25T08:28:11.318Z,52.59
2019-05-25T08:30:39.935Z,51.64
2019-05-25T08:33:08.591Z,52.74
2019-05-25T08:35:37.200Z,52.14
2019-05-25T08:38:05.734Z,52.42
2019-05-25T08:40:34.244Z,52.86
2019-05-25T08:43:02.800Z,54.34
2019-05-25T08:45:31.320Z,54.96
2019-05-25T08:47:59.922Z,54.21
2019-05-25T08:50:37.790Z,55.46
2019-05-25T08:52:59.071Z,54.43
2019-05-25T08:55:27.709Z,53.85
2019-05-25T08:57:56.304Z,53.43
2019-05-25T09:00:25.059Z,53.20
2019-05-25T09:02:53.742Z,53.37
2019-05-25T09:05:22.510Z,53.23
2019-05-25T09:07:51.024Z,52.35
2019-05-25T09:10:19.601Z,51.63
2019-05-25T09:12:48.158Z,52.49
2019-05-25T09:15:16.774Z,51.86
2019-05-25T09:17:45.231Z,51.28
2019-05-25T09:20:14.228Z,51.04
2019-05-25T09:22:42.670Z,50.37
2019-05-25T09:25:11.683Z,50.15
2019-05-25T09:27:40.252Z,49.03
2019-05-25T09:30:09.940Z,48.87
2019-05-25T09:32:38.525Z,48.49
2019-05-25T09:35:08.576Z,49.60
2019-05-25T09:37:37.060Z,48.14
2019-05-25T09:40:06.919Z,47.49
2019-05-25T09:42:35.584Z,47.29
2019-05-25T09:45:07.115Z,47.87
2019-05-25T09:47:35.972Z,46.08
2019-05-25T09:50:06.444Z,45.68
2019-05-25T09:52:35.025Z,45.97
2019-05-25T09:55:05.516Z,46.44
2019-05-25T09:57:34.063Z,46.88
2019-05-25T10:00:02.838Z,47.86
2019-05-25T10:02:31.298Z,48.01
2019-05-25T10:05:00.068Z,46.89
2019-05-25T10:07:28.663Z,47.00
2019-05-25T10:09:57.261Z,47.23
2019-05-25T10:12:26.014Z,46.11
2019-05-25T10:14:54.598Z,45.71
2019-05-25T10:17:23.197Z,46.90
2019-05-25T10:19:51.818Z,47.26
2019-05-25T10:22:20.438Z,47.16
2019-05-25T10:24:49.162Z,48.20
2019-05-25T10:27:17.997Z,46.74
2019-05-25T10:29:47.014Z,47.67
2019-05-25T10:32:15.909Z,47.31
2019-05-25T10:34:44.702Z,48.46
2019-05-25T10:37:13.987Z,47.63
2019-05-25T10:39:42.777Z,45.38
2019-05-25T10:42:11.473Z,45.37
2019-05-25T10:44:40.039Z,45.77
2019-05-25T10:47:08.560Z,46.17
2019-05-25T10:49:37.318Z,45.71
2019-05-25T10:52:06.110Z,45.92
2019-05-25T10:54:34.700Z,45.61
2019-05-25T10:57:03.703Z,45.54
2019-05-25T10:59:32.326Z,46.86
2019-05-25T11:02:00.954Z,47.05
2019-05-25T11:04:29.730Z,46.23
2019-05-25T11:06:58.443Z,47.48
2019-05-25T11:09:27.579Z,47.95
2019-05-25T11:11:56.509Z,48.72
2019-05-25T11:14:25.314Z,48.33
2019-05-25T11:16:53.961Z,49.06
2019-05-25T11:19:24.271Z,48.14
2019-05-25T11:21:52.833Z,49.75
2019-05-25T11:24:21.630Z,47.62
2019-05-25T11:26:50.286Z,48.10
2019-05-25T11:29:18.953Z,49.14
2019-05-25T11:31:55.309Z,48.99
2019-05-25T11:34:17.855Z,50.42
2019-05-25T11:36:46.443Z,50.86
2019-05-25T11:39:14.951Z,50.55
2019-05-25T11:41:43.470Z,50.00
2019-05-25T11:44:11.914Z,50.75
2019-05-25T11:46:40.505Z,49.42
2019-05-25T11:49:21.677Z,49.93
2019-05-25T11:51:39.439Z,48.94
2019-05-25T11:54:08.027Z,48.74
2019-05-25T11:56:36.622Z,48.41
2019-05-25T11:59:05.343Z,46.94
2019-05-25T12:01:33.863Z,46.23
2019-05-25T12:04:02.446Z,47.11
2019-05-25T12:06:31.277Z,47.09
2019-05-25T12:08:59.905Z,46.05
2019-05-25T12:11:28.751Z,46.32
2019-05-25T12:13:57.199Z,46.45
2019-05-25T12:16:26.109Z,46.46
2019-05-25T12:18:54.561Z,46.00
2019-05-25T12:21:23.540Z,46.84
2019-05-25T12:23:52.061Z,47.08
2019-05-25T12:26:20.679Z,47.95
2019-05-25T12:28:49.300Z,47.85
2019-05-25T12:31:18.436Z,48.44
2019-05-25T12:33:47.413Z,48.53
2019-05-25T12:36:16.402Z,47.67
2019-05-25T12:38:45.018Z,48.27
2019-05-25T12:41:13.609Z,47.94
2019-05-25T12:43:42.268Z,48.15
2019-05-25T12:46:10.946Z,48.42
2019-05-25T12:48:39.732Z,48.79
2019-05-25T12:51:08.336Z,47.89
2019-05-25T12:53:37.121Z,47.66
2019-05-25T12:56:06.669Z,48.31
2019-05-25T12:58:35.261Z,46.49
2019-05-25T13:01:03.965Z,48.22
2019-05-25T13:03:32.656Z,46.36
2019-05-25T13:06:01.506Z,46.38
2019-05-25T13:08:30.471Z,44.05
2019-05-25T13:10:59.541Z,46.00
2019-05-25T13:13:28.253Z,44.99
2019-05-25T13:15:57.683Z,44.23
2019-05-25T13:18:26.635Z,43.75
2019-05-25T13:20:55.619Z,43.50
2019-05-25T13:23:24.261Z,45.45
2019-05-25T13:25:53.060Z,43.62
2019-05-25T13:28:21.734Z,45.02
2019-05-25T13:30:50.344Z,43.71
2019-05-25T13:33:19.607Z,44.57
2019-05-25T13:35:48.239Z,44.41
2019-05-25T13:38:16.821Z,42.77
2019-05-25T13:40:45.467Z,42.71
2019-05-25T13:43:14.136Z,42.62
2019-05-25T13:45:45.910Z,42.72
2019-05-25T13:48:13.177Z,43.38
2019-05-25T13:50:41.883Z,43.12
2019-05-25T13:53:10.961Z,43.11
2019-05-25T13:55:39.566Z,43.26
2019-05-25T13:58:08.092Z,42.52
2019-05-25T14:00:36.718Z,42.22
2019-05-25T14:03:05.507Z,44.49
2019-05-25T14:05:34.281Z,44.46
2019-05-25T14:08:02.981Z,43.88
2019-05-25T14:10:31.882Z,44.05
2019-05-25T14:13:01.072Z,43.56
2019-05-25T14:15:30.181Z,43.48
2019-05-25T14:17:59.464Z,43.56
2019-05-25T14:20:27.985Z,44.10
2019-05-25T14:22:56.754Z,45.25
2019-05-25T14:25:26.814Z,44.59
2019-05-25T14:27:56.091Z,44.19
2019-05-25T14:30:25.484Z,44.18
2019-05-25T14:32:54.156Z,44.27
2019-05-25T14:35:22.788Z,44.45
2019-05-25T14:37:51.384Z,44.03
2019-05-25T14:40:20.157Z,44.24
2019-05-25T14:42:48.790Z,43.66
2019-05-25T14:45:17.611Z,44.46
2019-05-25T14:47:46.212Z,45.10
2019-05-25T14:50:15.225Z,45.03
2019-05-25T14:52:43.826Z,45.07
2019-05-25T14:55:12.819Z,44.66
2019-05-25T14:57:41.351Z,44.73
2019-05-25T15:00:11.943Z,44.48
2019-05-25T15:02:40.948Z,44.40
2019-05-25T15:05:10.229Z,44.89
2019-05-25T15:07:38.836Z,45.41
2019-05-25T15:10:10.761Z,45.67
2019-05-25T15:12:39.457Z,44.30
2019-05-25T15:15:09.458Z,44.56
2019-05-25T15:17:38.365Z,44.22
2019-05-25T15:20:10.667Z,44.74
2019-05-25T15:22:39.259Z,44.90
2019-05-25T15:25:09.033Z,44.93
2019-05-25T15:27:37.616Z,45.12
2019-05-25T15:30:07.939Z,44.77
2019-05-25T15:32:36.722Z,44.74
2019-05-25T15:35:06.817Z,45.59
2019-05-25T15:37:35.506Z,45.95
2019-05-25T15:40:05.739Z,47.07
2019-05-25T15:42:34.291Z,46.71
2019-05-25T15:45:02.809Z,46.74
2019-05-25T15:47:31.256Z,47.20
2019-05-25T15:49:59.891Z,46.94
2019-05-25T15:52:28.472Z,47.06
2019-05-25T15:54:57.141Z,47.09
2019-05-25T15:57:25.612Z,47.14
2019-05-25T15:59:54.131Z,47.56
2019-05-25T16:02:36.285Z,47.72
2019-05-25T16:04:53.283Z,48.82
2019-05-25T16:07:21.867Z,48.58
2019-05-25T16:09:50.599Z,48.88
2019-05-25T16:12:19.199Z,49.00
2019-05-25T16:14:47.712Z,48.95
2019-05-25T16:17:16.310Z,48.70
2019-05-25T16:19:44.835Z,48.91
2019-05-25T16:22:13.422Z,49.14
2019-05-25T16:24:42.025Z,49.59
2019-05-25T16:27:10.548Z,49.63
2019-05-25T16:29:39.171Z,49.59
2019-05-25T16:32:07.693Z,49.51
2019-05-25T16:34:36.329Z,49.85
2019-05-25T16:37:05.434Z,49.83
2019-05-25T16:39:34.083Z,49.87
2019-05-25T16:42:02.681Z,49.91
2019-05-25T16:44:31.223Z,50.26
2019-05-25T16:47:00.188Z,51.03
2019-05-25T16:49:28.816Z,50.21
2019-05-25T16:51:57.423Z,50.63
2019-05-25T16:54:26.065Z,50.25
2019-05-25T16:56:54.986Z,50.41
2019-05-25T16:59:23.525Z,50.34
2019-05-25T17:01:52.077Z,50.69
2019-05-25T17:04:20.686Z,50.19
2019-05-25T17:06:49.350Z,50.30
2019-05-25T17:09:17.899Z,51.21
2019-05-25T17:11:46.527Z,51.33
2019-05-25T17:14:15.017Z,51.02
2019-05-25T17:16:43.732Z,51.26
2019-05-25T17:19:12.530Z,51.33
2019-05-25T17:21:41.530Z,51.87
2019-05-25T17:24:10.151Z,52.23
2019-05-25T17:26:39.022Z,52.89
2019-05-25T17:29:07.639Z,53.45
2019-05-25T17:31:36.559Z,53.03
2019-05-25T17:34:05.268Z,53.27
2019-05-25T17:36:33.876Z,53.57
2019-05-25T17:39:02.809Z,53.78
2019-05-25T17:41:31.323Z,53.42
2019-05-25T17:43:59.824Z,54.04
2019-05-25T17:46:28.664Z,54.51
2019-05-25T17:48:57.319Z,54.93
2019-05-25T17:51:26.079Z,54.98
2019-05-25T17:53:54.818Z,55.42
2019-05-25T17:56:24.598Z,54.56
2019-05-25T17:58:53.495Z,55.82
2019-05-25T18:01:22.100Z,55.85
2019-05-25T18:04:05.620Z,56.81
2019-05-25T18:06:21.226Z,56.07
2019-05-25T18:08:50.288Z,56.98
2019-05-25T18:11:19.089Z,57.31
2019-05-25T18:13:48.320Z,57.12
2019-05-25T18:16:17.559Z,57.87
2019-05-25T18:18:47.991Z,58.33
2019-05-25T18:21:18.210Z,58.26
2019-05-25T18:23:48.388Z,58.59
2019-05-25T18:26:18.123Z,59.29
2019-05-25T18:28:48.205Z,59.16
2019-05-25T18:31:18.958Z,59.39
2019-05-25T18:33:49.929Z,59.89
2019-05-25T18:36:20.177Z,59.35
2019-05-25T18:38:51.064Z,59.61
2019-05-25T18:41:38.700Z,60.55
2019-05-25T18:44:08.631Z,60.04
2019-05-25T18:46:38.889Z,60.14
2019-05-25T18:49:08.489Z,62.44
2019-05-25T18:51:38.617Z,62.58
2019-05-25T18:54:09.200Z,62.98
2019-05-25T18:56:40.112Z,65.81
2019-05-25T18:59:11.066Z,63.07
2019-05-25T19:02:35.254Z,62.97
2019-05-25T19:05:07.433Z,63.45
2019-05-25T19:07:38.249Z,64.36
2019-05-25T19:10:12.923Z,64.53
2019-05-25T19:12:42.238Z,64.36
2019-05-25T19:15:13.567Z,65.97
2019-05-25T19:17:43.897Z,64.85
2019-05-25T19:20:20.649Z,66.95
2019-05-25T19:22:49.099Z,65.99
2019-05-25T19:25:20.270Z,65.91
2019-05-25T19:27:51.493Z,65.88
2019-05-25T19:30:23.560Z,66.04
2019-05-25T19:32:54.712Z,66.29
2019-05-25T19:35:26.159Z,67.00
2019-05-25T19:37:57.908Z,67.00
2019-05-25T19:40:29.511Z,67.75
2019-05-25T19:43:36.449Z,67.29
2019-05-25T19:46:07.659Z,67.94
2019-05-25T19:48:38.988Z,68.77
2019-05-25T19:51:10.213Z,69.07
2019-05-25T19:53:41.124Z,68.98
2019-05-25T19:56:12.393Z,69.31
2019-05-25T19:58:44.085Z,69.34
2019-05-25T20:01:14.966Z,69.72
2019-05-25T20:03:46.811Z,70.24
2019-05-25T20:06:18.092Z,70.72
2019-05-25T20:08:49.916Z,71.96
2019-05-25T20:11:21.565Z,72.10
2019-05-25T20:13:52.352Z,72.68
2019-05-25T20:20:45.899Z,73.93
2019-05-25T20:23:17.028Z,74.21
2019-05-25T20:25:48.205Z,74.84
2019-05-25T20:28:18.902Z,75.47
2019-05-25T20:30:50.082Z,75.65
2019-05-25T20:33:27.603Z,76.39
2019-05-25T20:35:54.707Z,76.72
2019-05-25T20:38:27.041Z,77.42
2019-05-25T20:41:05.099Z,78.01
2019-05-25T20:43:36.751Z,78.19
2019-05-25T20:46:08.077Z,78.69
2019-05-25T20:48:39.435Z,79.29
2019-05-25T20:51:10.967Z,79.48
2019-05-25T20:53:42.194Z,80.75
2019-05-25T20:56:14.238Z,80.44
2019-05-25T20:58:47.637Z,80.62
2019-05-25T21:02:11.978Z,80.96
2019-05-25T21:04:43.492Z,81.46
2019-05-25T21:07:14.960Z,81.32
2019-05-25T21:09:47.346Z,82.15
2019-05-25T21:12:18.594Z,82.39
2019-05-25T21:14:49.421Z,82.55
2019-05-25T21:17:20.841Z,83.03
2019-05-25T21:19:51.763Z,83.38
2019-05-25T21:22:23.017Z,83.11
2019-05-25T21:24:54.468Z,83.57
2019-05-25T21:27:25.241Z,83.39
2019-05-25T21:29:56.718Z,83.77
2019-05-25T21:32:27.619Z,83.61
2019-05-25T21:34:58.750Z,83.58
2019-05-25T21:37:29.837Z,84.32
2019-05-25T21:40:02.336Z,84.33
2019-05-25T21:42:40.205Z,84.58
2019-05-25T21:45:11.175Z,84.38
2019-05-25T21:47:40.995Z,84.51
2019-05-25T21:50:11.142Z,84.50
2019-05-25T21:52:40.659Z,84.88
2019-05-25T21:55:11.686Z,85.22
2019-05-25T21:57:42.550Z,84.96
2019-05-25T22:00:15.016Z,85.12
2019-05-25T22:02:43.843Z,85.04
2019-05-25T22:05:13.158Z,85.74
2019-05-25T22:07:42.571Z,85.60
2019-05-25T22:10:12.393Z,85.68
2019-05-25T22:12:42.583Z,86.17
2019-05-25T22:15:13.330Z,86.34
2019-05-25T22:17:42.207Z,86.73
2019-05-25T22:20:11.323Z,86.96
2019-05-25T22:22:40.981Z,87.13
2019-05-25T22:25:10.939Z,87.42
2019-05-25T22:27:40.354Z,87.78
2019-05-25T22:30:10.122Z,87.67
2019-05-25T22:32:39.814Z,87.94
2019-05-25T22:35:09.297Z,88.08
2019-05-25T22:37:37.953Z,88.06
2019-05-25T22:40:08.643Z,88.39
2019-05-25T22:42:37.256Z,88.62
2019-05-25T22:45:06.768Z,88.44
2019-05-25T22:47:35.208Z,88.59
2019-05-25T22:50:05.580Z,88.89
2019-05-25T22:52:34.164Z,88.95
2019-05-25T22:55:02.889Z,88.93
2019-05-25T22:57:31.827Z,89.18
2019-05-25T23:00:00.316Z,89.33
2019-05-25T23:02:28.836Z,89.84
2019-05-25T23:04:57.381Z,89.76
2019-05-25T23:07:25.824Z,90.03
2019-05-25T23:09:54.607Z,89.99
2019-05-25T23:12:23.146Z,90.15
2019-05-25T23:14:51.670Z,90.09
2019-05-25T23:17:20.159Z,89.99
2019-05-25T23:19:48.706Z,90.07
2019-05-25T23:22:17.298Z,90.22
2019-05-25T23:24:45.771Z,90.28
2019-05-25T23:27:16.160Z,90.31
2019-05-25T23:29:44.539Z,90.29
2019-05-25T23:32:13.091Z,90.55
2019-05-25T23:34:41.535Z,90.33
2019-05-25T23:37:14.578Z,90.56
2019-05-25T23:39:40.286Z,90.72
2019-05-25T23:42:08.810Z,90.88
2019-05-25T23:44:37.410Z,91.15
2019-05-25T23:47:06.102Z,91.16
2019-05-25T23:49:34.715Z,91.28
2019-05-25T23:52:03.329Z,91.21
2019-05-25T23:54:31.992Z,91.28
2019-05-25T23:57:00.623Z,91.21
2019-05-25T23:59:29.155Z,91.37
